createdAt,value
2023-01-25T00:00:39.390Z,29.30
2023-01-25T00:05:43.486Z,27.65
2023-01-25T00:10:46.237Z,27.13
2023-01-25T00:15:48.978Z,25.35
2023-01-25T00:20:53.117Z,26.67
2023-01-25T00:25:58.854Z,27.08
2023-01-25T00:31:01.940Z,25.48
2023-01-25T00:36:34.527Z,29.83
2023-01-25T00:41:37.312Z,29.33
2023-01-25T00:46:40.591Z,30.77
2023-01-25T00:51:44.797Z,28.73
2023-01-25T00:56:47.999Z,29.95
2023-01-25T01:01:51.617Z,30.63
2023-01-25T01:06:56.210Z,26.17
2023-01-25T01:11:59.005Z,25.38
2023-01-25T01:17:01.764Z,28.48
2023-01-25T01:22:06.013Z,29.95
2023-01-25T01:27:08.825Z,33.92
2023-01-25T01:32:11.744Z,33.85
2023-01-25T01:37:15.975Z,26.25
2023-01-25T01:42:18.816Z,26.88
2023-01-25T01:47:26.551Z,30.05
2023-01-25T01:52:38.474Z,23.03
2023-01-25T01:57:45.760Z,27.00
2023-01-25T02:02:51.769Z,26.65
2023-01-25T02:07:58.401Z,20.83
2023-01-25T02:13:01.295Z,25.00
2023-01-25T02:18:04.573Z,23.08
2023-01-25T02:30:10.457Z,25.17
2023-01-25T02:35:20.270Z,23.27
2023-01-25T02:40:23.028Z,27.80
2023-01-25T02:45:31.220Z,24.95
2023-01-25T02:50:33.935Z,24.27
2023-01-25T02:55:37.228Z,29.25
2023-01-25T03:00:41.358Z,27.20
2023-01-25T03:05:45.054Z,29.55
2023-01-25T03:10:47.894Z,27.77
2023-01-25T03:15:52.327Z,25.83
2023-01-25T03:20:55.363Z,31.00
2023-01-25T03:26:05.928Z,29.27
2023-01-25T03:31:12.898Z,29.25
2023-01-25T03:36:15.785Z,26.60
2023-01-25T03:41:18.613Z,31.20
2023-01-25T03:46:23.837Z,23.30
2023-01-25T03:51:26.734Z,21.25
2023-01-25T03:56:29.670Z,24.55
2023-01-25T04:01:43.636Z,21.85
2023-01-25T04:06:46.591Z,21.52
2023-01-25T04:11:50.613Z,22.35
2023-01-25T04:16:54.922Z,17.55
2023-01-25T04:22:20.278Z,15.45
2023-01-25T04:27:25.117Z,17.75
2023-01-25T04:32:39.162Z,20.40
2023-01-25T04:37:55.539Z,22.45
2023-01-25T04:43:00.548Z,17.42
2023-01-25T04:48:09.842Z,21.27
2023-01-25T04:53:15.191Z,22.83
2023-01-25T04:58:18.134Z,24.52
2023-01-25T05:03:22.710Z,24.90
2023-01-25T05:08:26.060Z,20.15
2023-01-25T05:13:32.698Z,23.58
2023-01-25T05:18:49.465Z,22.25
2023-01-25T05:24:12.564Z,26.77
2023-01-25T05:29:15.449Z,29.95
2023-01-25T05:34:28.144Z,24.40
2023-01-25T05:39:31.427Z,28.90
2023-01-25T05:44:34.312Z,28.50
2023-01-25T05:49:38.379Z,31.30
2023-01-25T05:54:42.551Z,29.63
2023-01-25T05:59:47.827Z,28.17
2023-01-25T06:04:55.688Z,27.83
2023-01-25T06:09:58.830Z,27.25
2023-01-25T06:15:01.844Z,27.33
2023-01-25T06:20:07.702Z,30.70
2023-01-25T06:25:17.342Z,32.38
2023-01-25T06:30:20.088Z,32.65
2023-01-25T06:35:24.150Z,36.25
2023-01-25T06:40:28.165Z,32.72
2023-01-25T06:45:30.833Z,38.53
2023-01-25T06:50:34.867Z,35.03
2023-01-25T06:55:37.596Z,34.22
2023-01-25T07:00:40.380Z,35.20
2023-01-25T07:05:44.521Z,36.03
2023-01-25T07:10:54.632Z,37.67
2023-01-25T07:15:59.076Z,36.35
2023-01-25T07:21:07.661Z,38.53
2023-01-25T07:26:17.480Z,44.58
2023-01-25T07:31:21.409Z,40.28
2023-01-25T07:36:26.257Z,43.00
2023-01-25T07:41:29.055Z,34.42
2023-01-25T07:46:31.928Z,38.88
2023-01-25T07:51:36.341Z,45.33
2023-01-25T07:56:40.569Z,38.85
2023-01-25T08:01:43.583Z,24.65
2023-01-25T08:06:47.846Z,30.10
2023-01-25T08:11:50.592Z,33.28
2023-01-25T08:16:53.346Z,31.73
2023-01-25T08:21:57.587Z,38.97
2023-01-25T08:27:00.542Z,41.22
2023-01-25T08:32:04.481Z,35.97
2023-01-25T08:37:08.687Z,37.05
2023-01-25T08:42:11.428Z,35.42
2023-01-25T08:47:14.196Z,43.13
2023-01-25T08:52:18.548Z,33.45
2023-01-25T08:57:21.460Z,40.80
2023-01-25T09:02:24.871Z,43.92
2023-01-25T09:07:32.273Z,36.88
2023-01-25T09:12:35.603Z,46.17
2023-01-25T09:17:39.079Z,41.15
2023-01-25T09:22:43.270Z,42.47
2023-01-25T09:27:46.133Z,43.42
2023-01-25T09:32:50.607Z,39.55
2023-01-25T09:37:54.910Z,42.63
2023-01-25T09:43:05.139Z,39.33
2023-01-25T09:48:19.811Z,38.97
2023-01-25T09:53:33.115Z,32.38
2023-01-25T09:58:39.150Z,34.45
2023-01-25T10:03:48.954Z,35.17
2023-01-25T10:09:01.636Z,38.78
2023-01-25T10:14:13.593Z,38.42
2023-01-25T10:19:23.972Z,41.63
2023-01-25T10:24:39.585Z,34.22
2023-01-25T10:29:42.476Z,37.75
2023-01-25T10:34:56.284Z,38.63
2023-01-25T10:40:05.097Z,40.22
2023-01-25T10:45:13.312Z,37.78
2023-01-25T10:50:45.059Z,33.72
2023-01-25T10:55:59.224Z,40.60
2023-01-25T11:01:02.846Z,37.00
2023-01-25T11:06:06.914Z,35.33
2023-01-25T11:11:32.121Z,36.75
2023-01-25T11:16:38.347Z,38.50
2023-01-25T11:21:52.776Z,39.25
2023-01-25T11:27:15.327Z,44.70
2023-01-25T11:37:41.731Z,45.25
2023-01-25T11:42:58.348Z,42.90
2023-01-25T11:48:18.023Z,41.95
2023-01-25T11:53:45.829Z,39.92
2023-01-25T11:59:05.858Z,38.15
2023-01-25T12:04:44.173Z,45.47
2023-01-25T12:09:57.413Z,41.63
2023-01-25T12:15:19.292Z,42.15
2023-01-25T12:20:35.171Z,36.30
2023-01-25T12:25:52.418Z,48.28
2023-01-25T12:31:00.116Z,44.10
2023-01-25T12:36:10.364Z,35.03
2023-01-25T12:41:22.922Z,44.15
2023-01-25T12:46:30.704Z,54.45
2023-01-25T12:51:37.340Z,52.75
2023-01-25T12:56:48.026Z,40.00
2023-01-25T13:01:58.389Z,42.10
2023-01-25T13:07:08.556Z,44.67
2023-01-25T13:12:12.841Z,34.72
2023-01-25T13:17:26.259Z,36.17
2023-01-25T13:22:55.057Z,37.08
2023-01-25T13:28:27.543Z,31.98
2023-01-25T13:38:38.687Z,35.17
2023-01-25T13:43:43.791Z,36.67
2023-01-25T13:48:58.883Z,31.83
2023-01-25T13:54:01.673Z,29.80
2023-01-25T13:59:04.571Z,34.50
2023-01-25T14:04:12.602Z,31.33
2023-01-25T14:09:20.734Z,34.75
2023-01-25T14:14:27.550Z,39.30
2023-01-25T14:19:33.442Z,39.17
2023-01-25T14:24:36.267Z,34.42
2023-01-25T14:34:48.174Z,45.95
2023-01-25T14:39:52.838Z,48.63
2023-01-25T14:44:55.731Z,41.67
2023-01-25T14:50:33.933Z,37.38
2023-01-25T14:55:38.002Z,33.47
2023-01-25T15:00:41.154Z,36.55
2023-01-25T15:05:48.460Z,33.42
2023-01-25T15:10:53.211Z,42.50
2023-01-25T15:15:58.552Z,40.42
2023-01-25T15:21:02.810Z,42.60
2023-01-25T15:26:14.903Z,42.25
2023-01-25T15:31:19.375Z,45.00
2023-01-25T15:36:23.946Z,40.15
2023-01-25T15:41:26.818Z,42.88
2023-01-25T15:46:33.527Z,42.47
2023-01-25T15:51:37.638Z,49.00
2023-01-25T15:56:42.865Z,48.17
2023-01-25T16:01:45.920Z,47.25
2023-01-25T16:06:52.257Z,46.05
2023-01-25T16:11:56.660Z,45.65
2023-01-25T16:17:02.320Z,43.55
2023-01-25T16:22:07.639Z,47.25
2023-01-25T16:27:16.793Z,57.63
2023-01-25T16:32:19.797Z,57.55
2023-01-25T16:37:24.033Z,57.78
2023-01-25T16:42:26.979Z,57.38
2023-01-25T16:47:29.943Z,60.78
2023-01-25T16:52:34.063Z,64.10
2023-01-25T16:57:37.056Z,56.05
2023-01-25T17:02:46.825Z,64.80
2023-01-25T17:08:01.307Z,59.50
2023-01-25T17:13:05.868Z,54.55
2023-01-25T17:18:08.604Z,76.45
2023-01-25T17:23:12.726Z,80.05
2023-01-25T17:28:15.571Z,83.75
2023-01-25T17:33:19.078Z,99.03
2023-01-25T17:38:24.566Z,88.45
2023-01-25T17:43:27.982Z,85.93
2023-01-25T17:48:30.833Z,92.10
2023-01-25T17:53:34.970Z,104.70
2023-01-25T17:58:39.180Z,129.43
2023-01-25T18:03:42.139Z,129.35
2023-01-25T18:08:48.937Z,128.30
2023-01-25T18:13:54.296Z,129.10
2023-01-25T18:18:58.781Z,134.15
2023-01-25T18:24:08.610Z,140.05
2023-01-25T18:29:37.554Z,132.52
2023-01-25T18:34:40.470Z,144.63
2023-01-25T18:39:44.701Z,123.93
2023-01-25T18:44:49.068Z,136.70
2023-01-25T18:49:53.707Z,149.07
2023-01-25T18:54:57.888Z,130.90
2023-01-25T19:00:00.757Z,127.75
2023-01-25T19:05:03.517Z,130.35
2023-01-25T19:10:08.478Z,136.25
2023-01-25T19:15:12.237Z,131.40
2023-01-25T19:20:15.277Z,138.43
2023-01-25T19:25:19.373Z,135.15
2023-01-25T19:30:22.333Z,127.35
2023-01-25T19:35:25.132Z,111.25
2023-01-25T19:40:29.401Z,124.20
2023-01-25T19:45:32.678Z,122.72
2023-01-25T19:50:35.479Z,114.88
2023-01-25T19:55:39.572Z,118.20
2023-01-25T20:00:42.357Z,120.15
2023-01-25T20:05:45.279Z,123.43
2023-01-25T20:10:49.447Z,123.03
2023-01-25T20:15:52.417Z,114.10
2023-01-25T20:20:56.973Z,122.25
2023-01-25T20:26:03.666Z,136.38
2023-01-25T20:31:06.607Z,118.72
2023-01-25T20:36:09.838Z,124.18
2023-01-25T20:41:15.660Z,114.28
2023-01-25T20:46:20.042Z,108.15
2023-01-25T20:51:23.995Z,115.32
2023-01-25T20:56:28.716Z,99.53
2023-01-25T21:01:36.541Z,97.70
2023-01-25T21:06:39.586Z,112.32
2023-01-25T21:11:43.776Z,105.18
2023-01-25T21:16:46.653Z,97.80
2023-01-25T21:21:49.491Z,93.57
2023-01-25T21:26:53.744Z,92.55
2023-01-25T21:31:58.880Z,113.18
2023-01-25T21:37:01.688Z,103.55
2023-01-25T21:42:05.974Z,101.95
2023-01-25T21:47:28.758Z,99.00
2023-01-25T21:52:31.475Z,105.90
2023-01-25T21:57:35.882Z,108.20
2023-01-25T22:02:38.758Z,106.65
2023-01-25T22:07:41.626Z,101.63
2023-01-25T22:12:50.563Z,110.68
2023-01-25T22:17:53.340Z,108.78
2023-01-25T22:22:56.127Z,114.25
2023-01-25T22:28:01.211Z,124.38
2023-01-25T22:33:03.974Z,117.63
2023-01-25T22:38:06.764Z,119.13
2023-01-25T22:43:10.913Z,122.35
2023-01-25T22:48:13.694Z,124.40
2023-01-25T22:53:16.525Z,92.72
2023-01-25T22:58:20.646Z,115.97
2023-01-25T23:03:23.471Z,107.82
2023-01-25T23:08:26.359Z,95.28
2023-01-25T23:13:30.767Z,118.80
2023-01-25T23:18:54.101Z,115.35
2023-01-25T23:23:57.766Z,120.07
2023-01-25T23:29:01.945Z,97.22
2023-01-25T23:34:06.359Z,109.32
2023-01-25T23:39:12.205Z,115.10
2023-01-25T23:44:16.626Z,113.88
2023-01-25T23:49:19.392Z,116.38
2023-01-25T23:54:22.228Z,113.03
2023-01-25T23:59:26.380Z,114.10
